Time;durP1;ratioP1;P1;durP2;ratioP2;P2;SDS_P1;SDS_P2;PMS_P1;PMS_P2;Temp;Humidity;BMP_temperature;BMP_pressure;BME280_temperature;BME280_humidity;BME280_pressure;Samples;Min_cycle;Max_cycle;Signal;HPM_P1;HPM_P2
2021/03/01 00:00:33;;;;;;;29.02;25.30;;;;;;;4.63;73.42;102224.11;128260;1096;22554;-74
2021/03/01 00:03:11;;;;;;;29.05;23.98;;;;;;;4.64;73.51;102210.96;128238;1098;22603;-74
2021/03/01 00:05:39;;;;;;;32.55;25.23;;;;;;;4.63;73.66;102201.43;128261;1096;22513;-75
2021/03/01 00:08:08;;;;;;;28.45;24.27;;;;;;;4.62;73.59;102215.42;128242;1098;22524;-74
2021/03/01 00:10:37;;;;;;;28.17;25.17;;;;;;;4.60;73.36;102212.06;128297;1098;22499;-74
2021/03/01 00:13:05;;;;;;;28.15;24.07;;;;;;;4.63;73.76;102217.14;128240;1097;22529;-74
2021/03/01 00:15:33;;;;;;;27.42;23.52;;;;;;;4.63;73.75;102217.14;128231;1098;22532;-74
2021/03/01 00:18:01;;;;;;;26.50;23.10;;;;;;;4.62;73.16;102218.04;128240;1098;22591;-74
2021/03/01 00:20:30;;;;;;;27.77;23.45;;;;;;;4.63;73.27;102231.97;128268;1098;22617;-74
2021/03/01 00:22:58;;;;;;;27.98;22.90;;;;;;;4.66;73.49;102231.81;128208;1098;22492;-75
2021/03/01 00:25:26;;;;;;;25.68;22.62;;;;;;;4.65;73.35;102233.59;128291;1098;22616;-73
2021/03/01 00:27:55;;;;;;;27.77;22.93;;;;;;;4.67;73.86;102236.98;128307;1098;22492;-73
2021/03/01 00:30:23;;;;;;;23.50;21.00;;;;;;;4.67;73.69;102238.75;128001;1098;24603;-74
2021/03/01 00:32:51;;;;;;;26.42;23.55;;;;;;;4.64;73.10;102242.38;128284;1097;22511;-74
2021/03/01 00:35:20;;;;;;;26.90;23.95;;;;;;;4.63;73.24;102239.82;128296;1098;22524;-75
2021/03/01 00:37:48;;;;;;;29.23;22.58;;;;;;;4.62;73.57;102241.59;128299;1098;22492;-73
2021/03/01 00:40:17;;;;;;;28.42;23.42;;;;;;;4.64;73.12;102250.23;128325;1098;22620;-75
2021/03/01 00:42:46;;;;;;;27.20;24.27;;;;;;;4.64;73.23;102250.23;128369;1098;24683;-74
2021/03/01 00:45:15;;;;;;;27.50;24.00;;;;;;;4.65;73.86;102240.59;128277;1098;22526;-75
2021/03/01 00:47:43;;;;;;;28.47;23.12;;;;;;;4.67;73.30;102233.52;128502;1098;22522;-74
2021/03/01 00:50:13;;;;;;;27.93;21.62;;;;;;;4.69;73.74;102239.50;128307;1098;22532;-72
2021/03/01 00:52:43;;;;;;;26.20;21.77;;;;;;;4.69;73.07;102232.48;128305;1096;22495;-74
2021/03/01 00:55:11;;;;;;;26.97;22.55;;;;;;;4.69;73.44;102236.87;128250;1098;23449;-74
2021/03/01 00:57:40;;;;;;;26.90;23.00;;;;;;;4.68;73.06;102230.80;128281;1098;25046;-76
2021/03/01 01:00:14;;;;;;;27.60;23.27;;;;;;;4.67;73.29;102229.13;128250;1098;23546;-73
2021/03/01 01:02:45;;;;;;;28.32;22.67;;;;;;;4.66;73.33;102218.72;128382;1098;22613;-74
2021/03/01 01:05:35;;;;;;;26.07;21.50;;;;;;;4.63;73.21;102218.88;128302;1098;22483;-75
2021/03/01 01:08:04;;;;;;;25.03;21.93;;;;;;;4.61;73.29;102215.52;128241;1098;22580;-74
2021/03/01 01:10:34;;;;;;;25.80;21.93;;;;;;;4.64;73.36;102224.05;128311;1097;22441;-75
2021/03/01 01:13:04;;;;;;;26.10;22.45;;;;;;;4.65;73.69;102223.11;128296;1098;22593;-74
2021/03/01 01:15:33;;;;;;;31.52;23.70;;;;;;;4.66;73.83;102237.04;128290;1098;22499;-74
2021/03/01 01:18:05;;;;;;;29.20;22.48;;;;;;;4.66;73.47;102232.64;128326;1098;23488;-75
2021/03/01 01:20:34;;;;;;;25.75;22.87;;;;;;;4.67;73.23;102234.36;128220;1099;24251;-74
2021/03/01 01:23:02;;;;;;;30.95;23.00;;;;;;;4.68;73.64;102236.03;128363;1098;24325;-77
2021/03/01 01:25:30;;;;;;;25.00;22.00;;;;;;;4.67;73.08;102236.98;128238;1098;22478;-77
2021/03/01 01:27:59;;;;;;;26.20;22.13;;;;;;;4.69;73.48;102242.11;128255;1098;22581;-74
2021/03/01 01:30:28;;;;;;;25.95;23.15;;;;;;;4.69;73.12;102229.86;128243;1098;22926;-74
2021/03/01 01:32:56;;;;;;;30.20;23.85;;;;;;;4.71;73.48;102240.27;128254;1098;22932;-74
2021/03/01 01:35:24;;;;;;;26.70;21.77;;;;;;;4.70;73.64;102233.36;128236;1098;22479;-74
2021/03/01 01:37:52;;;;;;;24.52;19.80;;;;;;;4.69;73.59;102234.26;128232;1098;24178;-74
2021/03/01 01:40:23;;;;;;;25.92;21.68;;;;;;;4.68;73.26;102227.34;128248;1098;24296;-74
2021/03/01 01:42:52;;;;;;;24.05;20.30;;;;;;;4.68;73.54;102225.56;128045;1098;22519;-74
2021/03/01 01:45:24;;;;;;;24.00;18.67;;;;;;;4.68;73.42;102227.34;128235;1098;24039;-74
2021/03/01 01:47:53;;;;;;;23.90;19.42;;;;;;;4.67;73.22;102223.05;128605;1096;24394;-74
2021/03/01 01:50:25;;;;;;;27.65;20.50;;;;;;;4.66;73.20;102222.17;128310;1098;22642;-74
2021/03/01 01:52:56;;;;;;;25.62;19.67;;;;;;;4.66;72.80;102216.10;128406;1096;22540;-74
2021/03/01 01:55:26;;;;;;;22.73;19.30;;;;;;;4.64;72.72;102210.96;128178;1100;24370;-74
2021/03/01 01:57:54;;;;;;;24.55;18.60;;;;;;;4.65;73.24;102212.64;128205;1098;22470;-75
2021/03/01 02:03:42;;;;;;;26.85;19.85;;;;;;;4.63;72.70;102208.41;128302;1096;22459;-74
2021/03/01 02:06:19;;;;;;;24.35;19.65;;;;;;;4.64;73.57;102202.27;128242;1098;22505;-74
2021/03/01 02:09:13;;;;;;;25.25;19.48;;;;;;;4.66;72.69;102206.47;128363;1098;22581;-74
2021/03/01 02:12:19;;;;;;;25.75;19.77;;;;;;;4.68;73.45;102198.55;128551;1097;23450;-74
2021/03/01 02:15:19;;;;;;;26.60;20.65;;;;;;;4.66;73.35;102198.61;128213;1098;22473;-74
2021/03/01 02:17:47;;;;;;;23.25;19.77;;;;;;;4.61;73.12;102195.42;128375;1098;22582;-74
2021/03/01 02:20:15;;;;;;;26.10;19.77;;;;;;;4.57;72.79;102190.45;128506;1096;22502;-74
2021/03/01 02:22:44;;;;;;;24.90;18.65;;;;;;;4.55;72.60;102197.53;128240;1098;22557;-74
2021/03/01 02:25:17;;;;;;;24.07;19.25;;;;;;;4.53;73.31;102197.59;128296;1098;23286;-75
2021/03/01 02:27:57;;;;;;;23.60;19.85;;;;;;;4.51;73.14;102196.85;128346;1098;24578;-74
2021/03/01 02:30:31;;;;;;;25.50;19.57;;;;;;;4.50;73.44;102203.02;128302;1098;22925;-74
2021/03/01 02:33:06;;;;;;;28.27;20.60;;;;;;;4.48;73.43;102202.25;128221;1098;22501;-75
2021/03/01 02:35:41;;;;;;;26.75;20.65;;;;;;;4.47;72.68;102200.57;128126;1098;24565;-74
2021/03/01 02:38:10;;;;;;;29.20;22.43;;;;;;;4.45;72.85;102197.18;128353;1098;24664;-74
2021/03/01 02:40:40;;;;;;;28.07;20.45;;;;;;;4.45;72.66;102194.56;128267;1098;22800;-74
2021/03/01 02:43:12;;;;;;;29.90;20.88;;;;;;;4.44;72.66;102188.48;128242;1098;22479;-74
2021/03/01 02:45:44;;;;;;;27.32;21.10;;;;;;;4.44;73.22;102196.34;128204;1099;22956;-74
2021/03/01 02:48:14;;;;;;;24.52;21.20;;;;;;;4.43;73.19;102193.78;128219;1099;22497;-74
2021/03/01 02:50:49;;;;;;;29.75;21.60;;;;;;;4.41;72.75;102195.66;128347;1096;23506;-74
2021/03/01 02:53:19;;;;;;;26.62;19.80;;;;;;;4.41;72.76;102198.28;128309;1098;22481;-74
2021/03/01 02:55:51;;;;;;;25.35;20.45;;;;;;;4.37;73.09;102205.45;128257;1099;24294;-74
2021/03/01 02:58:22;;;;;;;24.18;20.55;;;;;;;4.41;73.31;102208.75;128316;1098;22604;-74
2021/03/01 03:00:51;;;;;;;27.77;20.17;;;;;;;4.43;72.99;102204.25;128271;1098;24259;-74
2021/03/01 03:03:20;;;;;;;22.17;19.73;;;;;;;4.42;73.41;102206.03;128406;1097;24283;-74
2021/03/01 03:05:50;;;;;;;24.70;20.17;;;;;;;4.40;72.65;102210.52;128312;1098;22478;-74
2021/03/01 03:08:19;;;;;;;25.48;19.15;;;;;;;4.35;72.52;102211.69;128221;1099;22479;-74
2021/03/01 03:10:50;;;;;;;22.98;18.65;;;;;;;4.31;72.48;102205.78;128254;1098;22593;-74
2021/03/01 03:13:20;;;;;;;23.10;17.60;;;;;;;4.32;72.60;102215.30;128223;1101;23068;-74
2021/03/01 03:15:55;;;;;;;27.40;18.60;;;;;;;4.31;72.78;102221.47;128247;1097;22498;-74
2021/03/01 03:18:24;;;;;;;21.35;17.85;;;;;;;4.33;72.87;102218.77;128320;1098;22616;-74
2021/03/01 03:20:53;;;;;;;22.87;17.00;;;;;;;4.36;72.68;102223.83;128235;1098;22494;-76
2021/03/01 03:23:21;;;;;;;23.62;17.17;;;;;;;4.38;72.83;102221.98;128243;1098;22509;-74
2021/03/01 03:25:49;;;;;;;23.62;18.52;;;;;;;4.38;72.49;102221.98;128600;1098;22617;-75
2021/03/01 03:28:18;;;;;;;21.70;16.90;;;;;;;4.37;73.04;102225.55;128230;1098;22499;-74
2021/03/01 03:30:46;;;;;;;19.65;16.42;;;;;;;4.37;72.41;102226.38;128182;1098;22851;-74
2021/03/01 03:33:16;;;;;;;19.23;15.30;;;;;;;4.36;72.32;102229.06;128283;1098;22489;-74
2021/03/01 03:35:45;;;;;;;17.98;15.65;;;;;;;4.35;72.87;102227.38;128223;1098;22489;-75
2021/03/01 03:38:25;;;;;;;17.73;14.90;;;;;;;4.34;72.91;102229.16;128310;1098;22499;-75
2021/03/01 03:40:59;;;;;;;17.48;14.98;;;;;;;4.33;73.01;102232.72;128585;1096;22523;-75
2021/03/01 03:43:29;;;;;;;21.00;16.52;;;;;;;4.35;72.20;102236.08;128308;1098;24278;-74
2021/03/01 03:46:01;;;;;;;18.80;15.98;;;;;;;4.35;72.57;102232.62;128363;1098;22585;-74
2021/03/01 03:48:31;;;;;;;17.60;15.18;;;;;;;4.33;72.12;102240.56;128282;1098;23235;-74
2021/03/01 03:51:04;;;;;;;17.35;15.58;;;;;;;4.34;72.46;102241.41;128249;1098;24380;-74
2021/03/01 03:53:42;;;;;;;19.77;15.35;;;;;;;4.33;71.99;102244.92;128322;1098;24574;-74
2021/03/01 03:56:14;;;;;;;19.52;15.08;;;;;;;4.31;72.41;102241.56;128363;1097;22492;-74
2021/03/01 03:58:49;;;;;;;19.12;14.07;;;;;;;4.32;72.14;102249.31;128239;1098;24562;-74
2021/03/01 04:01:21;;;;;;;16.55;13.48;;;;;;;4.33;72.40;102245.80;128534;1098;22489;-74
2021/03/01 04:03:52;;;;;;;17.15;13.85;;;;;;;4.34;72.25;102241.41;128331;1097;22563;-75
2021/03/01 04:06:22;;;;;;;16.30;14.70;;;;;;;4.32;71.87;102238.02;128384;1098;22577;-75
2021/03/01 04:08:52;;;;;;;16.75;14.55;;;;;;;4.30;72.32;102239.85;128313;1098;22854;-75
2021/03/01 04:11:23;;;;;;;19.00;16.12;;;;;;;4.30;71.58;102240.72;128205;1099;22587;-76
2021/03/01 04:13:56;;;;;;;16.43;13.87;;;;;;;4.31;72.08;102241.56;128073;1096;22473;-75
2021/03/01 04:16:24;;;;;;;;;;;;;;;4.27;71.64;102247.89;128269;1096;22522;-75
2021/03/01 04:18:58;;;;;;;19.70;14.90;;;;;;;4.20;71.76;102248.20;128491;1096;21300;-76
2021/03/01 04:21:29;;;;;;;23.75;17.40;;;;;;;4.23;72.22;102244.56;128339;1098;22492;-75
2021/03/01 04:24:00;;;;;;;21.33;17.98;;;;;;;4.26;72.17;102249.63;128308;1098;22485;-76
2021/03/01 04:26:29;;;;;;;23.10;18.60;;;;;;;4.25;71.97;102248.80;128262;1098;22499;-75
2021/03/01 04:28:58;;;;;;;20.70;18.52;;;;;;;4.23;72.17;102245.44;128238;1099;22502;-75
2021/03/01 04:31:28;;;;;;;22.20;19.05;;;;;;;4.22;71.48;102243.72;128259;1099;22626;-74
2021/03/01 04:33:58;;;;;;;21.95;19.73;;;;;;;4.21;71.37;102244.66;128029;1098;24575;-76
2021/03/01 04:36:27;;;;;;;24.80;22.20;;;;;;;4.19;72.03;102249.11;128199;1101;22616;-76
2021/03/01 04:38:56;;;;;;;22.13;19.70;;;;;;;4.17;72.10;102247.52;127945;1098;22486;-74
2021/03/01 04:41:25;;;;;;;17.98;15.83;;;;;;;4.14;71.75;102251.14;127926;1098;22617;-76
2021/03/01 04:43:54;;;;;;;20.75;17.25;;;;;;;4.13;71.61;102249.45;128306;1098;24613;-74
2021/03/01 04:46:23;;;;;;;19.98;17.87;;;;;;;4.14;71.58;102248.52;128301;1098;22519;-74
2021/03/01 04:48:53;;;;;;;23.27;18.98;;;;;;;4.18;71.69;102250.05;128327;1098;22490;-75
2021/03/01 04:51:25;;;;;;;22.40;19.42;;;;;;;4.22;71.71;102251.57;128312;1098;22497;-74
2021/03/01 04:53:54;;;;;;;23.55;20.25;;;;;;;4.22;71.92;102242.88;128364;1098;22802;-75
2021/03/01 04:56:23;;;;;;;27.65;20.05;;;;;;;4.21;71.70;102251.66;128301;1098;22489;-74
2021/03/01 04:58:53;;;;;;;22.62;18.05;;;;;;;4.22;71.96;102251.57;128277;1098;22491;-74
2021/03/01 05:01:22;;;;;;;20.65;18.25;;;;;;;4.25;71.87;102261.03;128213;1098;22479;-74
2021/03/01 05:03:51;;;;;;;20.62;18.42;;;;;;;4.27;71.61;102258.36;128262;1100;24581;-74
2021/03/01 05:06:22;;;;;;;21.70;18.55;;;;;;;4.31;71.86;102262.50;128341;1098;24272;-75
2021/03/01 05:08:50;;;;;;;29.52;23.60;;;;;;;4.34;71.97;102262.34;128299;1098;22498;-76
2021/03/01 05:11:32;;;;;;;30.65;27.07;;;;;;;4.36;71.65;102265.70;128569;1096;24338;-75
2021/03/01 05:14:02;;;;;;;31.62;28.30;;;;;;;4.34;71.32;102267.57;128249;1101;24335;-75
2021/03/01 05:16:31;;;;;;;30.75;27.30;;;;;;;4.33;71.34;102264.11;128312;1098;22520;-75
2021/03/01 05:19:00;;;;;;;27.48;24.57;;;;;;;4.31;71.69;102258.10;128372;1098;24645;-74
2021/03/01 05:21:28;;;;;;;24.60;22.00;;;;;;;4.30;71.98;102261.66;128176;1100;22949;-75
2021/03/01 05:23:57;;;;;;;22.40;20.10;;;;;;;4.25;71.85;102269.72;128296;1098;22524;-75
2021/03/01 05:26:26;;;;;;;24.82;20.23;;;;;;;4.23;71.45;102266.36;128330;1096;22948;-75
2021/03/01 05:28:56;;;;;;;23.22;20.92;;;;;;;4.24;72.18;102278.51;128250;1098;22488;-77
2021/03/01 05:31:25;;;;;;;24.65;22.00;;;;;;;4.22;71.26;102276.89;128284;1098;22491;-75
2021/03/01 05:33:53;;;;;;;27.82;25.08;;;;;;;4.21;71.99;102277.82;128340;1097;22577;-75
2021/03/01 05:36:22;;;;;;;26.85;24.23;;;;;;;4.18;71.70;102281.44;128347;1096;22501;-74
2021/03/01 05:38:50;;;;;;;29.20;26.27;;;;;;;4.16;71.58;102275.42;128321;1098;22492;-75
2021/03/01 05:41:19;;;;;;;26.80;24.05;;;;;;;4.15;71.52;102275.52;128340;1097;24574;-75
2021/03/01 05:43:48;;;;;;;26.62;22.85;;;;;;;4.14;72.13;102277.30;128190;1101;22532;-74
2021/03/01 05:46:16;;;;;;;25.77;22.02;;;;;;;4.13;71.64;102277.36;128285;1098;22519;-75
2021/03/01 05:48:47;;;;;;;25.55;20.57;;;;;;;4.14;71.41;102282.52;128332;1098;22920;-75
2021/03/01 05:51:16;;;;;;;24.85;22.42;;;;;;;4.19;71.65;102285.73;128316;1096;23353;-76
2021/03/01 05:53:47;;;;;;;23.42;21.10;;;;;;;4.23;72.00;102287.29;128271;1098;22523;-76
2021/03/01 05:56:17;;;;;;;24.32;19.82;;;;;;;4.26;72.36;102286.27;128364;1098;23349;-76
2021/03/01 05:58:46;;;;;;;25.95;21.05;;;;;;;4.28;71.41;102286.20;128288;1098;22492;-76
2021/03/01 06:01:14;;;;;;;25.40;22.58;;;;;;;4.32;72.33;102287.72;128291;1096;22489;-74
2021/03/01 06:03:43;;;;;;;25.08;22.32;;;;;;;4.36;71.61;102299.72;128263;1098;24006;-74
2021/03/01 06:06:12;;;;;;;31.25;22.93;;;;;;;4.35;71.60;102300.65;128715;1096;22526;-73
2021/03/01 06:08:41;;;;;;;20.85;17.85;;;;;;;4.35;71.48;102301.49;128332;1098;24291;-73
2021/03/01 06:11:11;;;;;;;25.17;18.90;;;;;;;4.36;72.12;102304.95;128306;1098;22528;-75
2021/03/01 06:13:39;;;;;;;24.65;19.00;;;;;;;4.39;72.06;102312.64;128307;1098;24575;-75
2021/03/01 06:16:09;;;;;;;21.95;19.70;;;;;;;4.44;71.85;102306.25;128619;1098;22492;-74
2021/03/01 06:18:46;;;;;;;25.70;21.35;;;;;;;4.50;72.34;102310.33;128286;1098;22571;-74
2021/03/01 06:21:22;;;;;;;34.20;21.97;;;;;;;4.51;71.54;102313.78;128304;1098;25060;-75
2021/03/01 06:23:52;;;;;;;26.00;22.07;;;;;;;4.51;71.39;102316.41;128427;1098;22487;-74
2021/03/01 06:26:33;;;;;;;26.17;22.27;;;;;;;4.49;71.79;102319.92;128391;1098;22529;-73
2021/03/01 06:29:04;;;;;;;24.77;22.13;;;;;;;4.45;71.76;102318.41;128297;1098;22570;-73
2021/03/01 06:31:41;;;;;;;31.62;28.50;;;;;;;4.47;71.33;102318.34;128584;1098;22520;-69
2021/03/01 06:34:33;;;;;;;33.05;29.65;;;;;;;4.48;71.90;102327.88;128354;1098;25100;-70
2021/03/01 06:37:15;;;;;;;28.83;25.62;;;;;;;4.46;71.24;102332.33;128269;1098;22623;-70
2021/03/01 06:39:50;;;;;;;38.75;33.10;;;;;;;4.44;71.00;102342.89;128313;1098;22524;-70
2021/03/01 06:42:18;;;;;;;31.82;25.90;;;;;;;4.44;71.31;102337.66;128321;1098;22493;-70
2021/03/01 06:44:58;;;;;;;23.73;20.48;;;;;;;4.49;71.26;102342.64;128299;1098;24638;-70
2021/03/01 06:47:55;;;;;;;26.05;21.10;;;;;;;4.51;71.27;102348.66;128296;1096;22613;-70
2021/03/01 06:50:41;;;;;;;25.40;20.72;;;;;;;4.54;71.25;102348.50;128244;1098;23648;-70
2021/03/01 06:53:16;;;;;;;24.15;21.57;;;;;;;4.56;71.31;102349.24;128383;1098;22472;-70
2021/03/01 06:56:13;;;;;;;28.45;24.23;;;;;;;4.60;71.58;102348.19;128377;1098;22503;-70
2021/03/01 06:58:46;;;;;;;33.15;29.35;;;;;;;4.62;71.23;102351.55;128354;1098;25151;-70
2021/03/01 07:01:18;;;;;;;38.58;32.58;;;;;;;4.65;70.82;102350.55;128369;1098;22607;-70
2021/03/01 07:03:49;;;;;;;41.25;33.15;;;;;;;4.65;70.70;102343.53;128337;1098;24579;-70
2021/03/01 07:06:20;;;;;;;31.87;27.40;;;;;;;4.62;70.91;102341.08;128352;1098;22617;-70
2021/03/01 07:08:54;;;;;;;34.53;28.20;;;;;;;4.58;70.89;102344.78;128318;1098;22488;-70
2021/03/01 07:11:28;;;;;;;35.13;30.97;;;;;;;4.60;71.06;102345.56;128350;1098;24575;-70
2021/03/01 07:14:05;;;;;;;33.35;29.72;;;;;;;4.61;71.30;102349.86;128326;1098;22475;-70
2021/03/01 07:16:47;;;;;;;39.98;33.85;;;;;;;4.64;70.89;102351.48;128292;1098;22927;-70
2021/03/01 07:19:16;;;;;;;39.73;35.43;;;;;;;4.64;70.98;102352.33;128288;1096;22500;-70
2021/03/01 07:21:52;;;;;;;41.25;36.58;;;;;;;4.66;71.43;102352.23;128246;1098;24369;-70
2021/03/01 07:24:23;;;;;;;43.95;37.95;;;;;;;4.63;70.50;102357.62;128347;1098;24246;-69
2021/03/01 07:26:56;;;;;;;46.42;37.80;;;;;;;4.63;71.05;102362.86;128409;1097;22852;-69
2021/03/01 07:29:30;;;;;;;54.40;37.60;;;;;;;4.67;71.62;102353.95;128282;1098;24169;-69
2021/03/01 07:32:05;;;;;;;50.95;39.65;;;;;;;4.71;70.87;102356.31;128271;1098;24571;-69
2021/03/01 07:34:36;;;;;;;50.70;41.23;;;;;;;4.75;71.04;102351.75;128314;1098;22489;-70
2021/03/01 07:37:05;;;;;;;50.43;44.88;;;;;;;4.74;70.84;102354.47;128303;1098;22526;-70
2021/03/01 07:39:36;;;;;;;52.25;44.48;;;;;;;4.73;71.26;102358.83;128278;1096;23138;-69
2021/03/01 07:42:06;;;;;;;53.02;45.85;;;;;;;4.75;71.32;102356.15;128277;1098;22487;-69
2021/03/01 07:44:35;;;;;;;51.05;45.60;;;;;;;4.78;71.18;102351.59;128214;1098;25074;-70
2021/03/01 07:47:06;;;;;;;51.75;46.30;;;;;;;4.83;70.62;102364.43;128359;1098;23366;-69
2021/03/01 07:49:43;;;;;;;52.53;46.60;;;;;;;4.83;70.45;102364.43;128327;1098;22520;-69
2021/03/01 07:52:17;;;;;;;54.10;46.23;;;;;;;4.82;70.72;102368.83;128292;1098;22526;-70
2021/03/01 07:54:56;;;;;;;57.38;49.42;;;;;;;4.82;70.76;102371.45;128564;1098;22494;-70
2021/03/01 07:57:28;;;;;;;51.70;46.02;;;;;;;4.83;70.94;102373.16;128396;1097;22615;-68
2021/03/01 07:59:59;;;;;;;52.73;44.75;;;;;;;4.89;70.91;102380.66;128420;1098;22492;-69
2021/03/01 08:02:33;;;;;;;51.23;45.40;;;;;;;4.97;70.86;102376.82;128285;1098;23310;-72
2021/03/01 08:05:31;;;;;;;45.35;40.65;;;;;;;5.04;71.18;102383.42;128328;1098;22487;-70
2021/03/01 08:08:01;;;;;;;55.83;44.48;;;;;;;5.04;70.23;102384.27;128366;1098;22511;-70
2021/03/01 08:10:29;;;;;;;50.43;45.25;;;;;;;5.05;70.69;102387.72;128280;1098;22500;-69
2021/03/01 08:13:03;;;;;;;55.90;49.80;;;;;;;5.08;70.70;102387.56;128267;1098;22476;-71
2021/03/01 08:15:37;;;;;;;57.58;51.48;;;;;;;5.05;69.96;102392.96;128309;1098;24288;-69
2021/03/01 08:18:09;;;;;;;49.95;43.40;;;;;;;4.98;70.44;102395.06;128313;1098;22973;-69
2021/03/01 08:20:57;;;;;;;47.38;42.43;;;;;;;4.94;69.79;102394.38;128309;1098;22492;-72
2021/03/01 08:23:33;;;;;;;50.33;44.85;;;;;;;4.96;70.26;102389.05;128240;1099;24607;-71
2021/03/01 08:26:02;;;;;;;53.38;46.50;;;;;;;4.95;70.60;102395.22;128325;1098;22623;-71
2021/03/01 08:28:35;;;;;;;59.23;52.05;;;;;;;4.98;70.24;102397.68;128263;1098;22415;-72
2021/03/01 08:31:10;;;;;;;49.98;42.73;;;;;;;5.03;70.02;102394.80;128328;1098;24333;-72
2021/03/01 08:33:38;;;;;;;45.65;40.03;;;;;;;5.05;69.86;102400.82;128604;1098;22489;-70
2021/03/01 08:36:25;;;;;;;41.80;35.60;;;;;;;5.07;69.96;102402.44;128360;1097;22560;-72
2021/03/01 08:38:55;;;;;;;42.13;37.37;;;;;;;5.12;70.02;102394.32;128405;1096;23378;-70
2021/03/01 08:41:33;;;;;;;42.20;37.70;;;;;;;5.17;70.42;102393.16;128320;1098;22487;-75
2021/03/01 08:44:03;;;;;;;44.65;38.35;;;;;;;5.14;70.29;102382.84;128405;1098;24574;-75
2021/03/01 08:46:33;;;;;;;59.20;49.20;;;;;;;5.17;69.70;102389.69;128404;1098;22511;-75
2021/03/01 08:49:02;;;;;;;58.08;43.38;;;;;;;5.19;69.75;102400.91;128330;1098;22636;-76
2021/03/01 08:51:35;;;;;;;51.15;44.03;;;;;;;5.22;70.11;102410.39;128410;1097;23623;-75
2021/03/01 08:54:04;;;;;;;49.53;39.10;;;;;;;5.22;69.63;102413.02;128289;1100;23164;-75
2021/03/01 08:56:32;;;;;;;45.17;39.80;;;;;;;5.21;69.99;102413.95;128356;1097;22495;-76
2021/03/01 08:59:21;;;;;;;48.00;39.83;;;;;;;5.21;69.70;102411.33;128285;1100;22589;-76
2021/03/01 09:01:49;;;;;;;47.95;41.08;;;;;;;5.22;70.12;102413.86;128391;1098;22526;-76
2021/03/01 09:04:18;;;;;;;46.23;38.48;;;;;;;5.27;70.30;102422.33;128306;1098;22942;-76
2021/03/01 09:06:46;;;;;;;43.00;37.63;;;;;;;5.33;70.00;102426.37;128309;1096;22563;-76
2021/03/01 09:09:14;;;;;;;43.45;38.38;;;;;;;5.36;69.86;102419.19;128335;1098;22525;-76
2021/03/01 09:11:43;;;;;;;42.62;37.20;;;;;;;5.35;69.97;102424.53;128344;1098;22464;-75
2021/03/01 09:14:11;;;;;;;41.90;35.08;;;;;;;5.33;69.82;102431.61;128345;1098;22594;-76
2021/03/01 09:16:43;;;;;;;37.23;33.25;;;;;;;5.32;69.69;102429.93;128322;1098;24288;-76
2021/03/01 09:19:14;;;;;;;36.28;30.88;;;;;;;5.31;69.86;102423.84;128464;1098;24584;-75
2021/03/01 09:21:43;;;;;;;42.88;32.80;;;;;;;5.31;69.55;102421.23;128301;1098;22467;-75
2021/03/01 09:24:13;;;;;;;45.28;36.73;;;;;;;5.28;69.48;102428.41;128354;1097;22902;-75
2021/03/01 09:26:45;;;;;;;42.20;37.48;;;;;;;5.30;69.39;102437.02;128374;1098;22499;-75
2021/03/01 09:29:18;;;;;;;41.30;36.83;;;;;;;5.33;69.64;102436.86;128351;1098;22486;-76
2021/03/01 09:31:53;;;;;;;37.63;33.10;;;;;;;5.37;69.48;102436.63;128372;1098;22491;-75
2021/03/01 09:34:27;;;;;;;43.05;36.23;;;;;;;5.40;69.59;102439.09;128268;1099;22663;-75
2021/03/01 09:37:11;;;;;;;51.23;45.70;;;;;;;5.37;69.01;102435.78;128254;1100;22992;-75
2021/03/01 09:39:44;;;;;;;53.75;48.13;;;;;;;5.40;69.19;102441.70;128356;1098;22523;-75
2021/03/01 09:42:17;;;;;;;45.70;40.98;;;;;;;5.46;69.27;102443.13;128325;1098;23238;-75
2021/03/01 09:44:46;;;;;;;48.90;43.60;;;;;;;5.52;69.75;102436.72;128384;1098;22488;-75
2021/03/01 09:47:14;;;;;;;42.20;37.90;;;;;;;5.54;69.45;102443.58;128291;1098;22615;-75
2021/03/01 09:49:45;;;;;;;37.17;32.65;;;;;;;5.53;69.29;102444.52;128295;1098;22587;-72
2021/03/01 09:52:14;;;;;;;41.42;34.85;;;;;;;5.50;69.22;102444.67;128417;1098;22526;-72
2021/03/01 09:54:42;;;;;;;40.83;33.75;;;;;;;5.45;68.45;102436.20;128264;1098;22585;-72
2021/03/01 09:57:10;;;;;;;40.73;33.92;;;;;;;5.42;69.19;102449.47;128306;1098;22529;-71
2021/03/01 09:59:41;;;;;;;41.77;37.03;;;;;;;5.36;68.67;102445.39;128358;1098;22478;-72
2021/03/01 10:02:23;;;;;;;31.87;28.60;;;;;;;5.35;68.63;102438.47;128455;1098;22499;-72
2021/03/01 10:05:12;;;;;;;47.98;36.05;;;;;;;5.34;68.67;102439.41;128340;1098;22600;-72
2021/03/01 10:07:40;;;;;;;39.33;34.90;;;;;;;5.30;69.08;102442.26;128402;1098;22619;-70
2021/03/01 10:10:15;;;;;;;42.35;33.53;;;;;;;5.34;69.61;102441.19;128327;1098;24574;-71
2021/03/01 10:12:48;;;;;;;39.80;33.00;;;;;;;5.37;69.08;102448.89;128350;1097;24600;-71
2021/03/01 10:15:21;;;;;;;51.42;45.85;;;;;;;5.42;69.05;102450.31;128315;1098;22498;-72
2021/03/01 10:18:04;;;;;;;51.02;42.35;;;;;;;5.45;69.22;102446.69;128309;1097;22520;-71
2021/03/01 10:20:45;;;;;;;39.23;33.02;;;;;;;5.49;69.25;102436.87;128276;1101;23798;-71
2021/03/01 10:23:35;;;;;;;46.33;35.23;;;;;;;5.47;69.47;102447.46;128347;1098;22488;-72
2021/03/01 10:26:15;;;;;;;41.08;33.88;;;;;;;5.45;69.23;102446.69;128342;1098;24292;-71
2021/03/01 10:28:51;;;;;;;39.48;34.08;;;;;;;5.48;69.40;102451.77;128321;1099;22578;-72
2021/03/01 10:31:23;;;;;;;43.00;31.97;;;;;;;5.52;68.90;102450.66;128298;1097;24574;-71
2021/03/01 10:33:54;;;;;;;40.67;34.25;;;;;;;5.58;69.16;102454.73;128330;1096;22529;-71
2021/03/01 10:36:32;;;;;;;;;;;;;;;5.56;69.07;102441.70;128303;1098;22485;-71
2021/03/01 10:39:06;;;;;;;33.38;27.50;;;;;;;5.48;68.68;102441.28;128317;1098;23864;-70
2021/03/01 10:41:52;;;;;;;39.13;29.18;;;;;;;5.47;68.78;102452.70;128369;1098;22605;-71
2021/03/01 10:44:29;;;;;;;39.78;31.87;;;;;;;5.48;69.28;102451.77;128300;1098;22514;-71
2021/03/01 10:47:11;;;;;;;38.40;28.60;;;;;;;5.46;69.30;102455.39;128380;1098;22489;-71
2021/03/01 10:49:40;;;;;;;33.58;27.17;;;;;;;5.48;69.34;102453.55;128338;1096;24381;-70
2021/03/01 10:52:13;;;;;;;41.40;31.05;;;;;;;5.48;69.33;102451.77;128278;1097;22481;-70
2021/03/01 10:54:46;;;;;;;44.35;33.50;;;;;;;5.53;68.81;102446.27;128348;1098;24574;-71
2021/03/01 10:57:15;;;;;;;44.80;34.88;;;;;;;5.55;68.96;102442.63;128354;1098;22503;-71
2021/03/01 10:59:47;;;;;;;35.88;30.68;;;;;;;5.57;68.66;102445.19;128290;1098;23165;-71
2021/03/01 11:02:15;;;;;;;47.17;36.85;;;;;;;5.57;69.20;102447.81;128312;1098;22617;-71
2021/03/01 11:04:46;;;;;;;42.98;34.73;;;;;;;5.57;68.83;102455.67;128334;1098;23279;-71
2021/03/01 11:07:16;;;;;;;42.90;33.93;;;;;;;5.57;68.59;102445.19;128298;1098;22493;-71
2021/03/01 11:09:47;;;;;;;46.25;39.58;;;;;;;5.59;69.11;102445.93;128287;1098;22933;-71
2021/03/01 11:12:15;;;;;;;45.12;34.53;;;;;;;5.62;69.04;102451.84;128372;1098;22484;-70
2021/03/01 11:14:43;;;;;;;41.90;32.50;;;;;;;5.67;69.08;102451.61;128335;1098;22489;-71
2021/03/01 11:17:12;;;;;;;43.75;32.95;;;;;;;5.74;68.61;102458.21;128297;1097;25820;-71
2021/03/01 11:19:41;;;;;;;35.48;31.60;;;;;;;5.76;68.39;102460.73;128322;1097;22499;-71
2021/03/01 11:22:09;;;;;;;33.92;29.15;;;;;;;5.74;68.37;102459.99;128238;1101;22529;-71
2021/03/01 11:24:37;;;;;;;34.30;28.35;;;;;;;5.72;68.72;102459.22;128302;1097;24384;-71
2021/03/01 11:27:05;;;;;;;32.78;27.80;;;;;;;5.65;68.12;102456.09;128291;1099;22625;-71
2021/03/01 11:29:33;;;;;;;38.80;30.12;;;;;;;5.59;68.49;102459.04;128287;1099;22505;-71
2021/03/01 11:32:02;;;;;;;37.33;30.50;;;;;;;5.52;68.56;102458.53;128339;1098;22522;-71
2021/03/01 11:34:30;;;;;;;42.10;32.17;;;;;;;5.50;68.66;102447.30;128343;1098;22617;-71